createdAt,value
2023-08-05T00:00:43.000Z,17.1
2023-08-05T00:13:43.004Z,17.2
2023-08-05T00:26:43.000Z,17.0
2023-08-05T00:39:43.043Z,16.8
2023-08-05T00:52:43.054Z,16.6
2023-08-05T01:05:43.064Z,16.6
2023-08-05T01:18:43.034Z,16.6
2023-08-05T01:31:43.038Z,16.4
2023-08-05T01:44:43.052Z,16.5
2023-08-05T01:57:43.059Z,16.6
2023-08-05T02:10:43.051Z,16.5
2023-08-05T02:23:43.077Z,16.6
2023-08-05T02:36:43.066Z,16.5
2023-08-05T02:49:43.065Z,16.3
2023-08-05T03:02:43.097Z,16.4
2023-08-05T03:15:43.084Z,16.3
2023-08-05T03:28:43.075Z,16.1
2023-08-05T03:41:43.067Z,16.2
2023-08-05T03:54:43.083Z,16.1
2023-08-05T04:07:43.080Z,16.0
2023-08-05T04:20:43.097Z,15.9
2023-08-05T04:33:43.081Z,15.9
2023-08-05T04:46:43.080Z,15.7
2023-08-05T04:59:43.121Z,15.8
2023-08-05T05:12:43.103Z,15.8
2023-08-05T05:25:43.108Z,15.6
2023-08-05T05:38:43.119Z,15.6
2023-08-05T05:51:43.129Z,15.7
2023-08-05T06:04:43.217Z,15.7
2023-08-05T06:17:43.149Z,15.6
2023-08-05T06:30:43.133Z,15.8
2023-08-05T06:43:43.138Z,15.8
2023-08-05T06:56:43.166Z,16.1
2023-08-05T07:09:43.152Z,16.2
2023-08-05T07:22:43.172Z,16.2
2023-08-05T07:35:43.165Z,16.5
2023-08-05T07:48:43.210Z,16.6
2023-08-05T08:01:43.189Z,16.7
2023-08-05T08:14:43.168Z,16.9
2023-08-05T08:27:43.210Z,16.7
2023-08-05T08:40:43.205Z,17.0
2023-08-05T08:53:43.216Z,17.1
2023-08-05T09:06:43.210Z,17.3
2023-08-05T09:19:43.209Z,17.7
2023-08-05T09:32:43.214Z,18.0
2023-08-05T09:45:43.237Z,18.8
2023-08-05T09:58:43.225Z,19.5
2023-08-05T10:11:43.214Z,19.9
2023-08-05T10:24:43.243Z,20.1
2023-08-05T10:37:43.227Z,20.4
2023-08-05T10:50:43.250Z,20.3
2023-08-05T11:03:43.285Z,20.5
2023-08-05T11:16:43.275Z,20.5
2023-08-05T11:29:51.100Z,20.3
2023-08-05T11:42:43.273Z,20.0
2023-08-05T11:55:43.279Z,19.5
2023-08-05T12:08:43.492Z,19.3
2023-08-05T12:21:43.286Z,19.3
2023-08-05T12:34:43.279Z,19.2
2023-08-05T12:47:43.307Z,19.2
2023-08-05T13:00:43.288Z,19.6
2023-08-05T13:13:43.307Z,19.7
2023-08-05T13:26:43.305Z,19.5
2023-08-05T13:39:43.302Z,19.6
2023-08-05T13:52:43.402Z,20.0
2023-08-05T14:05:43.287Z,20.5
2023-08-05T14:18:43.321Z,20.6
2023-08-05T14:31:43.317Z,20.7
2023-08-05T14:44:43.314Z,20.9
2023-08-05T14:57:43.329Z,21.0
2023-08-05T15:10:43.315Z,20.5
2023-08-05T15:23:43.332Z,20.5
2023-08-05T15:36:43.322Z,20.4
2023-08-05T15:49:43.320Z,21.0
2023-08-05T16:02:43.344Z,21.8
2023-08-05T16:15:43.324Z,22.5
2023-08-05T16:28:43.336Z,22.1
2023-08-05T16:41:43.333Z,21.9
2023-08-05T16:54:43.344Z,21.6
2023-08-05T17:07:43.350Z,21.4
2023-08-05T17:20:43.364Z,21.5
2023-08-05T17:33:43.364Z,21.2
2023-08-05T17:46:43.386Z,21.0
2023-08-05T17:59:43.359Z,20.8
2023-08-05T18:12:43.393Z,20.3
2023-08-05T18:25:43.384Z,20.0
2023-08-05T18:38:43.390Z,19.6
2023-08-05T18:51:43.400Z,19.4
2023-08-05T19:04:43.405Z,19.2
2023-08-05T19:17:43.450Z,19.1
2023-08-05T19:30:43.411Z,19.1
2023-08-05T19:43:43.417Z,19.0
2023-08-05T19:56:43.419Z,18.8
2023-08-05T20:09:43.436Z,18.8
2023-08-05T20:22:43.436Z,18.8
2023-08-05T20:35:43.430Z,18.7
2023-08-05T20:48:43.438Z,18.3
2023-08-05T21:01:43.498Z,18.0
2023-08-05T21:14:43.444Z,17.7
2023-08-05T21:27:43.445Z,17.3
2023-08-05T21:40:43.443Z,16.9
2023-08-05T21:53:43.449Z,16.7
2023-08-05T22:06:43.467Z,16.7
2023-08-05T22:19:43.466Z,16.5
2023-08-05T22:32:43.500Z,16.2
2023-08-05T22:45:43.526Z,16.0
2023-08-05T22:58:43.485Z,15.8
2023-08-05T23:11:43.475Z,15.9
2023-08-05T23:24:43.520Z,16.0
2023-08-05T23:37:43.485Z,16.3
2023-08-05T23:50:43.483Z,16.2
